Time;durP1;ratioP1;P1;durP2;ratioP2;P2;SDS_P1;SDS_P2;PMS_P1;PMS_P2;Temp;Humidity;BMP_temperature;BMP_pressure;BME280_temperature;BME280_humidity;BME280_pressure;Samples;Min_cycle;Max_cycle;Signal;HPM_P1;HPM_P2
2022/04/13 00:01:27;;;;;;;0.40;0.40;;;14.10;67.00;;;;;;5113831;28;20038;-71
2022/04/13 00:03:54;;;;;;;0.47;0.47;;;14.10;67.10;;;;;;5113457;28;20400;-71
2022/04/13 00:06:20;;;;;;;0.50;0.30;;;14.10;67.20;;;;;;5113483;28;20042;-71
2022/04/13 00:08:46;;;;;;;0.50;0.30;;;13.90;67.20;;;;;;5113301;28;20044;-71
2022/04/13 00:11:13;;;;;;;0.45;0.30;;;13.90;67.30;;;;;;5094912;28;20036;-71
2022/04/13 00:13:40;;;;;;;0.30;0.30;;;13.90;67.40;;;;;;5094309;28;20054;-72
2022/04/13 00:16:06;;;;;;;0.52;0.40;;;13.80;67.50;;;;;;5114088;28;20484;-72
2022/04/13 00:18:32;;;;;;;0.40;0.40;;;13.80;67.60;;;;;;5095007;28;20048;-71
2022/04/13 00:20:57;;;;;;;0.38;0.30;;;13.70;67.70;;;;;;5095032;28;20093;-72
2022/04/13 00:23:23;;;;;;;0.85;0.30;;;13.70;67.80;;;;;;5113290;28;20517;-71
2022/04/13 00:25:49;;;;;;;0.20;0.20;;;13.80;67.90;;;;;;5113909;28;20044;-71
2022/04/13 00:28:14;;;;;;;0.30;0.30;;;13.60;67.90;;;;;;5113628;28;20038;-71
2022/04/13 00:30:40;;;;;;;0.30;0.30;;;13.60;68.00;;;;;;5095223;28;20575;-71
2022/04/13 00:33:07;;;;;;;0.38;0.38;;;13.60;68.10;;;;;;5113343;28;20058;-71
2022/04/13 00:35:32;;;;;;;0.63;0.40;;;13.50;68.10;;;;;;5094624;28;20075;-72
2022/04/13 00:37:58;;;;;;;0.30;0.30;;;13.50;68.10;;;;;;5078025;28;20115;-71
2022/04/13 00:40:24;;;;;;;0.43;0.40;;;13.40;68.20;;;;;;5113420;28;20093;-71
2022/04/13 00:42:49;;;;;;;0.80;0.30;;;13.40;68.30;;;;;;5113294;28;20131;-71
2022/04/13 00:45:15;;;;;;;0.85;0.40;;;13.40;68.40;;;;;;5093707;28;20134;-73
2022/04/13 00:47:41;;;;;;;0.43;0.40;;;13.30;68.40;;;;;;5113037;28;20131;-72
2022/04/13 00:50:09;;;;;;;0.30;0.30;;;13.40;68.40;;;;;;5094685;28;20088;-72
2022/04/13 00:52:38;;;;;;;0.40;0.40;;;13.30;68.50;;;;;;5113317;28;20385;-72
2022/04/13 00:55:07;;;;;;;0.25;0.25;;;13.30;68.50;;;;;;5112724;28;20090;-71
2022/04/13 00:57:36;;;;;;;0.30;0.30;;;13.30;68.60;;;;;;5094689;28;20092;-71
2022/04/13 01:00:04;;;;;;;0.30;0.30;;;13.10;68.60;;;;;;5112760;28;20127;-71
2022/04/13 01:02:31;;;;;;;0.13;0.13;;;13.20;68.70;;;;;;5112717;28;20044;-72
2022/04/13 01:05:02;;;;;;;0.35;0.30;;;13.10;68.80;;;;;;5112723;28;20039;-71
2022/04/13 01:07:29;;;;;;;0.20;0.20;;;13.10;68.90;;;;;;5112657;28;20039;-71
2022/04/13 01:09:55;;;;;;;0.57;0.30;;;13.10;69.00;;;;;;5112704;28;20127;-72
2022/04/13 01:12:21;;;;;;;0.40;0.40;;;13.00;69.00;;;;;;5094417;28;20420;-72
2022/04/13 01:14:47;;;;;;;0.22;0.22;;;13.00;69.20;;;;;;5112845;28;20031;-71
2022/04/13 01:17:13;;;;;;;0.93;0.32;;;12.90;69.30;;;;;;5112432;28;20176;-72
2022/04/13 01:19:39;;;;;;;0.45;0.20;;;12.90;69.40;;;;;;5112663;28;20046;-71
2022/04/13 01:22:19;;;;;;;0.32;0.32;;;12.90;69.40;;;;;;5112337;28;20074;-71
2022/04/13 01:24:45;;;;;;;0.40;0.30;;;12.80;69.50;;;;;;5094710;28;20039;-71
2022/04/13 01:27:11;;;;;;;0.25;0.25;;;12.80;69.60;;;;;;5112854;28;20430;-72
2022/04/13 01:29:37;;;;;;;0.57;0.40;;;12.70;69.70;;;;;;5112390;28;20039;-71
2022/04/13 01:32:03;;;;;;;0.30;0.30;;;12.70;69.80;;;;;;5112334;28;20042;-71
2022/04/13 01:34:29;;;;;;;0.57;0.52;;;12.70;69.90;;;;;;5092776;28;20036;-71
2022/04/13 01:36:55;;;;;;;0.50;0.43;;;12.60;69.90;;;;;;5112285;28;20046;-71
2022/04/13 01:39:20;;;;;;;0.30;0.30;;;12.60;70.10;;;;;;5093936;28;20052;-72
2022/04/13 01:41:48;;;;;;;0.55;0.50;;;12.60;70.10;;;;;;5112660;28;20097;-71
2022/04/13 01:44:15;;;;;;;0.45;0.43;;;12.50;70.20;;;;;;5112689;28;20035;-71
2022/04/13 01:46:41;;;;;;;0.30;0.30;;;12.40;70.20;;;;;;5112171;28;20035;-72
2022/04/13 01:49:07;;;;;;;0.50;0.40;;;12.50;70.30;;;;;;5112316;28;20058;-71
2022/04/13 01:51:33;;;;;;;0.30;0.30;;;12.40;70.30;;;;;;5093884;28;20126;-71
2022/04/13 01:53:58;;;;;;;0.68;0.40;;;12.40;70.40;;;;;;5093948;28;20039;-71
2022/04/13 01:56:24;;;;;;;0.40;0.40;;;12.40;70.50;;;;;;5113784;28;20477;-71
2022/04/13 01:58:50;;;;;;;0.68;0.40;;;12.40;70.60;;;;;;5115577;28;20047;-71
2022/04/13 02:01:17;;;;;;;0.40;0.40;;;12.30;70.60;;;;;;5115570;28;20040;-71
2022/04/13 02:03:43;;;;;;;0.40;0.40;;;12.20;70.60;;;;;;5095237;28;20048;-71
2022/04/13 02:06:09;;;;;;;0.40;0.40;;;12.20;70.80;;;;;;5115280;28;20039;-71
2022/04/13 02:08:35;;;;;;;0.43;0.30;;;12.20;70.90;;;;;;5097485;28;20123;-71
2022/04/13 02:11:03;;;;;;;0.40;0.30;;;12.20;71.00;;;;;;5115577;28;20043;-71
2022/04/13 02:13:28;;;;;;;0.40;0.40;;;12.10;71.00;;;;;;5115277;28;20115;-71
2022/04/13 02:15:54;;;;;;;1.10;0.47;;;12.10;71.10;;;;;;5097034;28;20127;-71
2022/04/13 02:18:20;;;;;;;0.68;0.40;;;12.00;71.20;;;;;;5097259;28;20496;-71
2022/04/13 02:20:48;;;;;;;0.60;0.40;;;12.00;71.20;;;;;;5115279;28;20046;-71
2022/04/13 02:23:14;;;;;;;0.30;0.30;;;12.00;71.20;;;;;;5115221;28;20032;-71
2022/04/13 02:25:40;;;;;;;0.63;0.40;;;12.00;71.20;;;;;;5115831;28;20882;-71
2022/04/13 02:28:07;;;;;;;0.38;0.35;;;12.00;71.20;;;;;;5115017;28;20047;-71
2022/04/13 02:30:32;;;;;;;0.30;0.30;;;12.00;71.20;;;;;;5115551;28;20044;-71
2022/04/13 02:32:59;;;;;;;1.00;0.40;;;12.00;71.20;;;;;;5115034;28;20084;-71
2022/04/13 02:35:25;;;;;;;0.70;0.40;;;12.00;71.20;;;;;;5115005;28;20131;-71
2022/04/13 02:37:51;;;;;;;0.47;0.40;;;12.00;71.20;;;;;;5114923;28;20061;-71
2022/04/13 02:40:17;;;;;;;0.45;0.40;;;12.00;71.20;;;;;;5114855;28;20043;-71
2022/04/13 02:42:42;;;;;;;0.30;0.30;;;12.10;71.20;;;;;;5097160;28;20062;-71
2022/04/13 02:45:08;;;;;;;1.02;0.40;;;12.10;71.10;;;;;;5114895;28;20036;-71
2022/04/13 02:47:35;;;;;;;0.63;0.40;;;12.00;71.10;;;;;;5114725;28;20044;-71
2022/04/13 02:50:01;;;;;;;0.95;0.40;;;12.10;71.10;;;;;;5115193;28;20035;-71
2022/04/13 02:52:28;;;;;;;0.38;0.38;;;12.10;71.00;;;;;;5115120;28;20039;-71
2022/04/13 02:54:55;;;;;;;0.38;0.38;;;12.10;71.10;;;;;;5114451;28;20036;-71
2022/04/13 02:57:21;;;;;;;0.80;0.40;;;12.10;71.00;;;;;;5114924;28;20071;-70
2022/04/13 02:59:48;;;;;;;0.20;0.20;;;12.10;71.10;;;;;;5115155;28;20082;-71
2022/04/13 03:02:16;;;;;;;0.55;0.47;;;12.10;71.10;;;;;;5114540;28;20039;-71
2022/04/13 03:04:44;;;;;;;0.40;0.40;;;12.10;71.20;;;;;;5114987;28;20134;-71
2022/04/13 03:07:11;;;;;;;0.25;0.25;;;12.10;71.30;;;;;;5113844;28;20067;-71
2022/04/13 03:09:38;;;;;;;0.52;0.40;;;12.10;71.20;;;;;;5096407;28;20378;-71
2022/04/13 03:12:06;;;;;;;0.35;0.35;;;12.10;71.20;;;;;;5114668;28;20076;-71
2022/04/13 03:14:32;;;;;;;0.40;0.40;;;12.10;71.30;;;;;;5115002;28;20040;-71
2022/04/13 03:16:58;;;;;;;0.65;0.45;;;12.10;71.20;;;;;;5114261;28;20032;-71
2022/04/13 03:19:24;;;;;;;0.22;0.22;;;12.10;71.20;;;;;;5114523;28;20055;-71
2022/04/13 03:21:51;;;;;;;0.88;0.40;;;12.10;71.20;;;;;;5114678;28;20043;-71
2022/04/13 03:24:18;;;;;;;0.50;0.38;;;12.10;71.20;;;;;;5114530;28;20505;-71
2022/04/13 03:26:43;;;;;;;0.30;0.30;;;12.10;71.30;;;;;;5114854;28;20039;-71
2022/04/13 03:29:09;;;;;;;0.93;0.50;;;12.00;71.30;;;;;;5114124;28;20047;-71
2022/04/13 03:31:35;;;;;;;0.85;0.50;;;12.00;71.40;;;;;;5095831;28;20036;-71
2022/04/13 03:34:01;;;;;;;0.45;0.45;;;12.00;71.50;;;;;;5114064;28;20050;-71
2022/04/13 03:36:27;;;;;;;0.43;0.40;;;12.10;71.60;;;;;;5094961;28;20036;-71
2022/04/13 03:38:53;;;;;;;0.73;0.45;;;12.00;71.60;;;;;;5114180;28;20089;-71
2022/04/13 03:41:18;;;;;;;0.50;0.40;;;12.00;71.60;;;;;;5113972;28;20382;-71
2022/04/13 03:43:44;;;;;;;0.40;0.30;;;12.00;71.70;;;;;;5114156;28;20065;-71
2022/04/13 03:46:10;;;;;;;0.52;0.50;;;12.00;71.80;;;;;;5113980;28;20031;-71
2022/04/13 03:48:36;;;;;;;0.50;0.47;;;12.00;71.80;;;;;;5113755;28;20040;-71
2022/04/13 03:51:02;;;;;;;0.45;0.43;;;11.90;71.90;;;;;;5095880;28;20126;-71
2022/04/13 03:53:28;;;;;;;0.65;0.52;;;12.00;72.00;;;;;;5114315;28;20074;-71
2022/04/13 03:55:54;;;;;;;0.95;0.60;;;11.90;72.00;;;;;;5114014;28;20059;-71
2022/04/13 03:58:19;;;;;;;0.40;0.40;;;11.90;72.10;;;;;;5113566;28;20489;-71
2022/04/13 04:00:45;;;;;;;0.50;0.40;;;11.90;72.30;;;;;;5094080;28;20088;-71
2022/04/13 04:03:11;;;;;;;0.70;0.70;;;11.80;72.40;;;;;;5114058;28;20485;-71
2022/04/13 04:05:38;;;;;;;0.55;0.52;;;11.70;72.40;;;;;;5113723;28;20071;-71
2022/04/13 04:08:04;;;;;;;0.50;0.50;;;11.70;72.60;;;;;;5113669;28;20039;-71
2022/04/13 04:10:30;;;;;;;0.52;0.47;;;11.70;72.70;;;;;;5113629;28;20080;-71
2022/04/13 04:12:55;;;;;;;2.90;0.85;;;11.60;72.80;;;;;;5113843;28;20035;-71
2022/04/13 04:15:21;;;;;;;0.68;0.60;;;11.60;72.90;;;;;;5113956;28;20043;-71
2022/04/13 04:17:47;;;;;;;0.40;0.40;;;11.50;73.00;;;;;;5095413;28;20047;-71
2022/04/13 04:20:13;;;;;;;0.60;0.60;;;11.50;73.10;;;;;;5113974;28;20412;-71
2022/04/13 04:22:39;;;;;;;0.50;0.50;;;11.50;73.20;;;;;;5096000;28;20127;-71
2022/04/13 04:25:07;;;;;;;1.58;0.63;;;11.40;73.30;;;;;;5113654;28;20389;-71
2022/04/13 04:27:33;;;;;;;0.50;0.43;;;11.50;73.40;;;;;;5093924;28;20040;-71
2022/04/13 04:29:59;;;;;;;0.77;0.50;;;11.30;73.50;;;;;;5113520;28;20435;-71
2022/04/13 04:32:25;;;;;;;0.57;0.57;;;11.30;73.60;;;;;;5113221;28;20080;-71
2022/04/13 04:34:52;;;;;;;0.57;0.52;;;11.30;73.70;;;;;;5113542;28;20040;-71
2022/04/13 04:37:17;;;;;;;0.50;0.50;;;11.30;73.80;;;;;;5114111;28;20092;-71
2022/04/13 04:39:44;;;;;;;0.55;0.55;;;11.20;73.80;;;;;;5113743;28;20032;-71
2022/04/13 04:42:11;;;;;;;0.73;0.60;;;11.20;73.80;;;;;;5095346;28;20052;-71
2022/04/13 04:44:36;;;;;;;0.88;0.63;;;11.10;73.90;;;;;;5078312;28;20092;-71
2022/04/13 04:47:03;;;;;;;0.95;0.50;;;11.00;74.00;;;;;;5113952;28;20036;-71
2022/04/13 04:49:29;;;;;;;0.80;0.60;;;11.00;74.20;;;;;;5113119;28;20036;-71
2022/04/13 04:51:55;;;;;;;0.82;0.73;;;11.00;74.30;;;;;;5061200;28;20382;-71
2022/04/13 04:54:21;;;;;;;1.08;0.60;;;10.90;74.30;;;;;;5094188;28;20040;-71
2022/04/13 04:56:47;;;;;;;0.52;0.52;;;10.90;74.40;;;;;;5112921;28;20388;-71
2022/04/13 04:59:15;;;;;;;0.93;0.70;;;10.90;74.50;;;;;;5112987;28;20047;-71
2022/04/13 05:01:42;;;;;;;1.65;0.75;;;10.80;74.50;;;;;;5112914;28;20039;-71
2022/04/13 05:04:07;;;;;;;0.57;0.52;;;10.80;74.60;;;;;;5113357;28;20071;-71
2022/04/13 05:06:33;;;;;;;0.45;0.45;;;10.70;74.60;;;;;;5095028;28;20067;-71
2022/04/13 05:08:59;;;;;;;1.02;0.70;;;10.70;74.70;;;;;;5113315;28;20116;-71
2022/04/13 05:11:25;;;;;;;0.60;0.60;;;10.70;74.70;;;;;;5094758;28;20093;-71
2022/04/13 05:13:51;;;;;;;0.40;0.40;;;10.70;74.70;;;;;;5113128;28;20035;-72
2022/04/13 05:16:18;;;;;;;0.55;0.52;;;10.70;74.70;;;;;;5112667;28;20481;-72
2022/04/13 05:18:46;;;;;;;0.60;0.60;;;10.60;74.70;;;;;;5094288;28;20055;-71
2022/04/13 05:21:12;;;;;;;1.08;0.70;;;10.70;74.80;;;;;;5112719;28;20485;-72
2022/04/13 05:23:38;;;;;;;1.52;0.70;;;10.70;74.80;;;;;;5112645;28;20050;-71
2022/04/13 05:26:04;;;;;;;0.60;0.52;;;10.70;74.80;;;;;;5112808;28;20408;-71
2022/04/13 05:28:30;;;;;;;0.45;0.45;;;10.70;74.90;;;;;;5112525;28;20044;-71
2022/04/13 05:30:56;;;;;;;0.82;0.60;;;10.70;74.90;;;;;;5113501;28;20038;-71
2022/04/13 05:33:23;;;;;;;0.50;0.50;;;10.80;75.00;;;;;;5116358;28;20156;-71
2022/04/13 05:35:49;;;;;;;0.93;0.77;;;10.70;74.90;;;;;;5098679;28;20048;-71
2022/04/13 05:38:15;;;;;;;1.13;0.70;;;10.70;74.80;;;;;;5097371;28;20039;-71
2022/04/13 05:40:41;;;;;;;0.77;0.60;;;10.80;74.90;;;;;;5116628;28;20050;-72
2022/04/13 05:43:07;;;;;;;0.57;0.57;;;10.80;74.80;;;;;;5116532;28;20043;-71
2022/04/13 05:45:33;;;;;;;1.00;0.60;;;10.90;74.80;;;;;;5097745;28;20044;-71
2022/04/13 05:47:59;;;;;;;1.25;0.80;;;10.90;74.70;;;;;;5116356;28;20148;-71
2022/04/13 05:50:25;;;;;;;1.00;0.77;;;11.00;74.60;;;;;;5116074;28;20063;-71
2022/04/13 05:52:51;;;;;;;0.65;0.65;;;11.10;74.50;;;;;;5097827;28;20036;-71
2022/04/13 05:55:16;;;;;;;0.73;0.70;;;11.20;74.40;;;;;;5098199;28;20067;-71
2022/04/13 05:57:42;;;;;;;0.88;0.68;;;11.20;74.30;;;;;;5115959;28;20489;-71
2022/04/13 06:00:11;;;;;;;0.73;0.73;;;11.40;74.30;;;;;;5116334;28;20047;-71
2022/04/13 06:02:38;;;;;;;0.75;0.75;;;11.40;74.10;;;;;;5097751;28;20084;-71
2022/04/13 06:05:06;;;;;;;0.60;0.60;;;11.50;74.10;;;;;;5116131;28;20054;-71
2022/04/13 06:07:32;;;;;;;0.82;0.70;;;11.50;74.10;;;;;;5096516;28;20047;-71
2022/04/13 06:10:01;;;;;;;0.82;0.80;;;11.60;74.10;;;;;;5115393;28;20036;-72
2022/04/13 06:12:27;;;;;;;0.60;0.60;;;11.60;74.00;;;;;;5097208;28;20489;-71
2022/04/13 06:15:08;;;;;;;0.80;0.55;;;11.70;74.10;;;;;;5115290;28;20031;-72
2022/04/13 06:17:34;;;;;;;1.38;0.70;;;11.70;74.10;;;;;;5115939;28;20062;-71
2022/04/13 06:20:01;;;;;;;0.93;0.70;;;11.80;74.10;;;;;;5114967;28;20123;-72
2022/04/13 06:22:30;;;;;;;1.10;0.82;;;11.80;74.10;;;;;;5114816;28;20044;-72
2022/04/13 06:24:55;;;;;;;0.90;0.68;;;11.90;74.10;;;;;;5095410;28;20401;-71
2022/04/13 06:27:21;;;;;;;1.00;0.90;;;11.90;74.10;;;;;;5097026;28;20061;-72
2022/04/13 06:29:47;;;;;;;1.95;1.00;;;12.00;74.20;;;;;;5115504;28;19920;-72
2022/04/13 06:32:14;;;;;;;1.08;0.90;;;12.10;74.20;;;;;;5096899;28;20531;-72
2022/04/13 06:34:40;;;;;;;1.50;1.10;;;12.20;74.10;;;;;;5115239;28;20122;-70
2022/04/13 06:37:08;;;;;;;1.67;1.17;;;12.30;74.00;;;;;;5115027;28;20065;-71
2022/04/13 06:39:34;;;;;;;1.83;1.30;;;12.40;73.90;;;;;;5080672;28;20040;-70
2022/04/13 06:42:00;;;;;;;1.65;0.95;;;12.50;74.40;;;;;;5114495;28;20050;-69
2022/04/13 06:44:25;;;;;;;2.13;1.20;;;12.60;73.60;;;;;;5096561;28;20396;-69
2022/04/13 06:46:53;;;;;;;1.40;1.13;;;12.80;73.50;;;;;;5080075;28;20445;-70
2022/04/13 06:49:26;;;;;;;1.63;1.20;;;12.80;73.40;;;;;;5094943;28;20048;-72
2022/04/13 06:51:51;;;;;;;1.77;1.20;;;12.90;74.00;;;;;;5062128;28;20489;-70
2022/04/13 06:54:17;;;;;;;1.92;1.15;;;13.00;73.40;;;;;;5114849;28;20089;-70
2022/04/13 06:56:43;;;;;;;1.80;1.30;;;13.00;73.40;;;;;;5114896;28;20031;-70
2022/04/13 06:59:08;;;;;;;3.08;1.38;;;13.10;73.40;;;;;;5095907;28;20050;-70
2022/04/13 07:01:34;;;;;;;2.80;1.73;;;13.30;73.50;;;;;;5115401;28;20381;-70
2022/04/13 07:04:00;;;;;;;2.90;1.70;;;13.30;73.40;;;;;;5096848;28;20096;-70
2022/04/13 07:06:25;;;;;;;3.13;1.80;;;13.40;73.40;;;;;;5096590;28;20067;-70
2022/04/13 07:08:51;;;;;;;4.18;1.90;;;13.50;73.50;;;;;;5096440;28;20040;-71
2022/04/13 07:11:17;;;;;;;3.80;2.30;;;13.50;73.50;;;;;;5114522;28;20488;-70
2022/04/13 07:13:43;;;;;;;3.55;2.10;;;13.50;73.60;;;;;;5096908;28;20413;-71
2022/04/13 07:16:08;;;;;;;2.90;1.88;;;13.60;73.70;;;;;;5114587;28;20061;-70
2022/04/13 07:18:34;;;;;;;3.42;2.05;;;13.60;73.70;;;;;;5096605;28;20039;-71
2022/04/13 07:21:01;;;;;;;2.75;2.00;;;13.70;73.80;;;;;;5114632;28;20043;-70
2022/04/13 07:23:26;;;;;;;3.22;1.95;;;13.70;73.80;;;;;;5096273;28;20485;-71
2022/04/13 07:25:52;;;;;;;3.83;2.20;;;13.80;73.90;;;;;;5094652;28;20051;-71
2022/04/13 07:28:18;;;;;;;2.95;1.90;;;13.70;73.90;;;;;;5095858;28;20042;-71
2022/04/13 07:30:44;;;;;;;3.38;1.90;;;13.80;74.10;;;;;;5114534;28;21343;-71
2022/04/13 07:33:10;;;;;;;3.30;2.15;;;13.90;74.10;;;;;;5095072;28;20075;-71
2022/04/13 07:35:35;;;;;;;3.05;1.92;;;13.90;74.10;;;;;;5096373;28;20031;-71
2022/04/13 07:38:01;;;;;;;1.95;1.45;;;14.00;74.00;;;;;;5114143;28;20047;-71
2022/04/13 07:40:27;;;;;;;3.35;1.58;;;14.20;74.00;;;;;;5114108;28;20049;-72
2022/04/13 07:42:52;;;;;;;4.05;1.90;;;14.20;73.90;;;;;;5096549;28;20079;-71
2022/04/13 07:45:18;;;;;;;3.20;1.83;;;14.30;73.90;;;;;;5095918;28;20040;-71
2022/04/13 07:47:44;;;;;;;3.05;1.90;;;14.40;73.80;;;;;;5079046;28;20478;-71
2022/04/13 07:50:12;;;;;;;3.80;2.08;;;14.40;73.80;;;;;;5114211;28;20043;-72
2022/04/13 07:52:40;;;;;;;2.75;1.73;;;14.40;73.90;;;;;;5061051;28;20079;-72
2022/04/13 07:55:07;;;;;;;3.88;2.00;;;14.40;74.00;;;;;;5095390;28;20092;-70
2022/04/13 07:57:33;;;;;;;3.25;1.95;;;14.40;74.20;;;;;;5078687;28;20032;-70
2022/04/13 07:59:59;;;;;;;4.05;2.00;;;14.40;74.30;;;;;;5113838;28;20035;-70
2022/04/13 08:02:25;;;;;;;3.58;2.05;;;14.40;74.50;;;;;;5079067;28;20481;-70
2022/04/13 08:04:51;;;;;;;3.38;2.10;;;14.40;74.50;;;;;;5095461;28;20035;-71
2022/04/13 08:07:17;;;;;;;4.35;2.45;;;14.50;74.60;;;;;;5113827;28;20040;-71
2022/04/13 08:09:43;;;;;;;5.03;2.50;;;14.50;74.70;;;;;;5095615;28;20052;-70
2022/04/13 08:12:09;;;;;;;5.63;2.47;;;14.60;74.80;;;;;;5077062;28;20071;-71
2022/04/13 08:14:34;;;;;;;4.82;2.42;;;14.60;74.70;;;;;;5113543;28;20515;-70
2022/04/13 08:17:03;;;;;;;5.88;2.90;;;14.60;74.60;;;;;;5077287;28;20478;-71
2022/04/13 08:19:30;;;;;;;4.07;2.65;;;14.70;74.60;;;;;;5113964;28;20052;-71
2022/04/13 08:21:57;;;;;;;3.60;2.47;;;14.80;74.70;;;;;;5095573;28;20046;-70
2022/04/13 08:24:22;;;;;;;4.40;2.20;;;14.90;74.60;;;;;;5095499;28;20097;-71
2022/04/13 08:26:48;;;;;;;3.97;2.10;;;15.00;74.60;;;;;;5113532;28;20431;-71
2022/04/13 08:29:14;;;;;;;3.75;2.17;;;15.10;74.40;;;;;;5093769;28;20048;-73
2022/04/13 08:31:40;;;;;;;4.07;2.15;;;15.20;74.30;;;;;;5076458;28;20394;-72
2022/04/13 08:34:06;;;;;;;3.33;2.00;;;15.20;74.20;;;;;;5095602;28;20077;-72
2022/04/13 08:36:32;;;;;;;3.15;1.92;;;15.30;74.30;;;;;;5113734;28;20485;-73
2022/04/13 08:38:58;;;;;;;2.80;1.85;;;15.40;74.30;;;;;;5095181;28;20074;-72
2022/04/13 08:41:47;;;;;;;2.33;1.50;;;15.60;74.10;;;;;;5061071;28;20036;-73
2022/04/13 08:44:25;;;;;;;2.95;1.45;;;15.70;73.90;;;;;;5113453;28;20042;-74
2022/04/13 08:46:55;;;;;;;2.70;1.40;;;15.90;73.60;;;;;;5095031;28;20051;-73
2022/04/13 08:49:22;;;;;;;2.25;1.50;;;16.00;73.30;;;;;;5095392;28;20035;-73
2022/04/13 08:51:51;;;;;;;3.90;1.50;;;16.10;73.10;;;;;;5078097;28;20035;-73
2022/04/13 08:54:30;;;;;;;2.30;1.40;;;16.20;73.10;;;;;;5113468;28;20075;-73
2022/04/13 08:56:57;;;;;;;2.75;1.27;;;16.30;73.00;;;;;;5113149;28;20401;-73
2022/04/13 08:59:50;;;;;;;2.55;1.60;;;16.50;72.90;;;;;;5112832;28;20052;-72
2022/04/13 09:02:35;;;;;;;3.05;1.35;;;16.40;72.90;;;;;;5113419;28;20043;-72
2022/04/13 09:05:01;;;;;;;1.55;1.23;;;16.50;73.70;;;;;;5112327;28;20055;-72
2022/04/13 09:07:32;;;;;;;1.85;1.17;;;16.60;72.90;;;;;;5113058;28;20035;-73
2022/04/13 09:10:02;;;;;;;1.88;1.05;;;16.80;72.60;;;;;;5112913;28;20040;-73
2022/04/13 09:12:30;;;;;;;2.15;1.10;;;16.90;72.40;;;;;;5094688;28;20036;-73
2022/04/13 09:14:57;;;;;;;1.88;1.30;;;17.00;72.30;;;;;;5112754;28;20128;-73
2022/04/13 09:17:28;;;;;;;1.70;1.30;;;17.00;72.40;;;;;;5094422;28;20043;-72
2022/04/13 09:19:56;;;;;;;1.50;1.10;;;17.20;72.40;;;;;;5094983;28;20035;-71
2022/04/13 09:22:22;;;;;;;1.63;1.30;;;17.40;72.10;;;;;;5077542;28;20074;-72
2022/04/13 09:24:50;;;;;;;2.10;1.20;;;17.50;71.90;;;;;;5077465;28;20506;-70
2022/04/13 09:27:16;;;;;;;2.38;1.38;;;17.70;71.80;;;;;;5112586;28;20039;-70
2022/04/13 09:29:42;;;;;;;2.47;1.50;;;17.90;71.50;;;;;;5112449;28;20075;-70
2022/04/13 09:32:08;;;;;;;2.55;1.60;;;18.00;71.40;;;;;;5112464;28;20066;-72
2022/04/13 09:34:34;;;;;;;1.88;1.30;;;18.10;71.30;;;;;;5113304;28;20044;-71
2022/04/13 09:37:00;;;;;;;1.90;0.95;;;18.30;71.20;;;;;;5112536;28;20143;-72
2022/04/13 09:39:27;;;;;;;1.67;1.13;;;18.40;70.90;;;;;;5094375;28;20038;-71
2022/04/13 09:41:53;;;;;;;2.72;1.30;;;18.40;70.70;;;;;;5077566;28;20048;-72
2022/04/13 09:44:19;;;;;;;1.42;1.05;;;18.50;71.40;;;;;;5094329;28;20051;-71
2022/04/13 09:46:45;;;;;;;1.42;1.00;;;18.60;70.70;;;;;;5060752;28;20047;-71
2022/04/13 09:49:14;;;;;;;1.30;1.00;;;18.60;70.60;;;;;;5112328;28;20032;-71
2022/04/13 09:51:43;;;;;;;1.80;1.20;;;18.60;70.70;;;;;;5092914;28;20134;-70
2022/04/13 09:54:12;;;;;;;1.55;1.10;;;18.60;70.80;;;;;;5094122;28;20046;-72
2022/04/13 09:56:43;;;;;;;1.05;0.88;;;18.50;71.10;;;;;;5092406;28;20081;-71
2022/04/13 09:59:10;;;;;;;1.10;0.90;;;18.40;71.30;;;;;;5112246;28;20458;-72
2022/04/13 10:01:36;;;;;;;1.25;1.10;;;18.40;71.50;;;;;;5112357;28;20477;-72
2022/04/13 10:04:03;;;;;;;2.10;1.10;;;18.50;71.80;;;;;;5112219;28;20501;-71
2022/04/13 10:06:31;;;;;;;1.30;1.02;;;18.40;71.80;;;;;;5112169;28;20482;-71
2022/04/13 10:09:00;;;;;;;1.58;1.05;;;18.30;72.00;;;;;;5092854;28;20067;-71
2022/04/13 10:11:26;;;;;;;1.73;1.05;;;18.20;72.00;;;;;;5092356;28;20043;-70
2022/04/13 10:13:52;;;;;;;2.13;1.20;;;18.10;72.20;;;;;;5093741;28;20036;-70
2022/04/13 10:16:18;;;;;;;1.80;1.08;;;17.90;72.40;;;;;;5112138;28;20131;-71
2022/04/13 10:18:54;;;;;;;3.33;1.30;;;17.80;72.80;;;;;;5096513;28;20040;-71
2022/04/13 10:21:49;;;;;;;1.60;1.00;;;17.70;73.00;;;;;;5116007;28;20047;-71
2022/04/13 10:24:31;;;;;;;2.08;1.30;;;17.70;73.10;;;;;;5115382;28;20044;-71
2022/04/13 10:27:09;;;;;;;2.20;1.35;;;17.70;73.20;;;;;;5097349;28;20047;-71
2022/04/13 10:29:37;;;;;;;3.45;1.40;;;17.60;73.10;;;;;;5096515;28;20040;-70
2022/04/13 10:32:07;;;;;;;1.98;1.00;;;17.60;73.20;;;;;;5115083;28;20389;-72
2022/04/13 10:34:36;;;;;;;2.28;1.20;;;17.60;73.10;;;;;;5078660;28;20040;-72
2022/04/13 10:37:03;;;;;;;2.47;1.45;;;17.60;73.00;;;;;;5096353;28;20130;-71
2022/04/13 10:39:34;;;;;;;2.22;1.25;;;17.60;73.10;;;;;;5052608;28;20041;-71
2022/04/13 10:42:03;;;;;;;2.30;1.40;;;17.50;73.10;;;;;;5019377;28;20106;-70
2022/04/13 10:44:34;;;;;;;2.25;1.38;;;17.50;73.10;;;;;;5019431;28;20048;-70
2022/04/13 10:47:04;;;;;;;1.58;1.00;;;17.50;73.20;;;;;;5035638;28;20048;-70
2022/04/13 10:49:49;;;;;;;1.40;1.17;;;17.30;73.20;;;;;;5035980;28;20081;-69
2022/04/13 10:52:23;;;;;;;1.50;1.05;;;17.30;73.30;;;;;;5052414;28;20085;-70
2022/04/13 10:54:54;;;;;;;1.90;1.13;;;17.20;73.40;;;;;;5052372;28;20167;-70
2022/04/13 10:57:21;;;;;;;;;;;17.20;73.50;;;;;;5052855;28;20128;-70
2022/04/13 10:59:52;;;;;;;1.35;0.95;;;17.10;73.50;;;;;;5052303;28;19917;-70
2022/04/13 11:02:29;;;;;;;;;;;17.10;73.40;;;;;;5052948;28;20076;-70
2022/04/13 11:04:56;;;;;;;0.60;0.60;;;17.10;73.40;;;;;;5052182;28;20380;-72
2022/04/13 11:07:24;;;;;;;1.02;0.73;;;17.10;73.40;;;;;;5018943;28;20096;-73
2022/04/13 11:09:55;;;;;;;2.65;0.70;;;17.10;73.30;;;;;;5066542;28;20040;-72
2022/04/13 11:12:22;;;;;;;1.10;0.80;;;17.10;73.30;;;;;;5063561;28;20031;-72
2022/04/13 11:14:53;;;;;;;0.98;0.98;;;17.20;73.20;;;;;;5114859;28;20040;-72
2022/04/13 11:17:23;;;;;;;1.63;1.13;;;17.10;73.10;;;;;;5096436;28;20031;-72
2022/04/13 11:19:49;;;;;;;1.30;1.00;;;17.10;73.00;;;;;;5114677;28;20055;-72
2022/04/13 11:22:17;;;;;;;2.55;1.10;;;17.20;73.00;;;;;;5114430;28;20039;-72
2022/04/13 11:24:56;;;;;;;1.27;0.95;;;17.20;72.90;;;;;;5079803;28;20071;-72
2022/04/13 11:27:23;;;;;;;1.42;0.90;;;17.20;72.80;;;;;;5080204;28;20081;-72
2022/04/13 11:30:03;;;;;;;2.55;1.10;;;17.20;72.80;;;;;;5114023;28;20066;-71
2022/04/13 11:32:33;;;;;;;1.00;0.90;;;17.10;72.90;;;;;;5096148;28;20031;-72
2022/04/13 11:35:12;;;;;;;2.75;1.02;;;17.10;72.90;;;;;;5079309;28;20515;-73
2022/04/13 11:37:45;;;;;;;0.95;0.80;;;17.10;72.80;;;;;;5114836;28;20462;-72
2022/04/13 11:40:17;;;;;;;0.93;0.70;;;17.10;72.70;;;;;;5114066;28;20066;-71
2022/04/13 11:42:52;;;;;;;1.77;0.90;;;17.10;73.50;;;;;;5095837;28;20552;-71
2022/04/13 11:45:19;;;;;;;1.20;0.85;;;17.00;72.70;;;;;;5114630;28;20092;-71
2022/04/13 11:48:03;;;;;;;1.95;0.98;;;17.10;72.80;;;;;;5095705;28;20043;-70
2022/04/13 11:50:35;;;;;;;1.27;1.02;;;17.00;72.80;;;;;;5114345;28;20039;-73
2022/04/13 11:53:14;;;;;;;1.92;1.00;;;17.00;72.90;;;;;;5114371;28;20141;-72
2022/04/13 11:55:44;;;;;;;1.15;0.80;;;16.90;72.90;;;;;;5095632;28;20036;-72
2022/04/13 11:58:20;;;;;;;1.20;0.93;;;16.90;72.90;;;;;;5094519;28;20105;-72
2022/04/13 12:00:52;;;;;;;0.98;0.80;;;16.90;72.90;;;;;;5114580;28;20100;-72
2022/04/13 12:03:22;;;;;;;1.13;0.90;;;16.90;73.00;;;;;;5113867;28;20131;-72
2022/04/13 12:06:02;;;;;;;2.63;1.08;;;16.90;72.90;;;;;;5113673;28;20054;-72
2022/04/13 12:08:35;;;;;;;1.10;1.00;;;16.90;72.90;;;;;;5051127;28;20092;-72
2022/04/13 12:11:05;;;;;;;1.70;0.80;;;16.80;72.90;;;;;;5018903;28;20110;-72
2022/04/13 12:13:46;;;;;;;0.85;0.73;;;16.70;73.00;;;;;;5018028;28;20107;-71
2022/04/13 12:16:19;;;;;;;1.20;0.90;;;16.70;73.10;;;;;;5033716;28;20081;-70
2022/04/13 12:18:45;;;;;;;1.55;0.95;;;16.80;73.20;;;;;;5033462;28;20392;-71
2022/04/13 12:21:14;;;;;;;1.67;1.05;;;16.70;73.10;;;;;;5017817;28;20147;-71
2022/04/13 12:23:41;;;;;;;2.40;1.15;;;16.70;73.10;;;;;;5049044;28;20045;-72
2022/04/13 12:26:08;;;;;;;1.42;0.77;;;16.70;73.10;;;;;;5051441;28;20127;-71
2022/04/13 12:28:34;;;;;;;2.92;1.20;;;16.70;73.60;;;;;;5018168;28;20100;-70
2022/04/13 12:31:06;;;;;;;1.25;0.77;;;16.70;73.10;;;;;;5050863;28;20132;-70
2022/04/13 12:33:33;;;;;;;1.35;0.73;;;16.60;73.20;;;;;;5050768;28;20090;-71
2022/04/13 12:36:04;;;;;;;1.17;0.70;;;16.70;73.20;;;;;;5034250;28;20127;-72
2022/04/13 12:38:46;;;;;;;1.45;0.82;;;16.60;73.20;;;;;;5042792;28;20050;-71
2022/04/13 12:41:17;;;;;;;1.05;0.70;;;16.70;73.20;;;;;;5113156;28;20048;-71
2022/04/13 12:43:49;;;;;;;2.10;1.13;;;16.70;73.20;;;;;;5113292;28;20047;-71
2022/04/13 12:46:18;;;;;;;0.95;0.80;;;16.70;73.20;;;;;;5093806;28;20040;-71
2022/04/13 12:48:47;;;;;;;2.85;0.90;;;16.70;73.10;;;;;;5112889;28;20047;-71
2022/04/13 12:51:14;;;;;;;1.55;0.70;;;16.70;73.10;;;;;;5093145;28;20115;-71